Parker City, Indiana
Current Conditions -  °F | °C
As of 1:53 PM on Tuesday 27 Jan 2015 (Local Time) from KMIE Reporting Station
Clear Clear  
Wind Chill: -4°   Ceiling: Unl
Heat Index: -4°   Visibility: 9mi
Dew Point: -11°   Wind: 3mph
Humidity: 60%   Direction: 10°N
Pressure: 30.11"   Gusts: NA
Location:  40.19°N, 85.2°W
Report Text: KMIE 271853Z 01003KT 9SM CLR M04/M11 A3011 RMK AO2 SLP207 T10391106
Loading
Personal Weather Stations






























Interactive Weather Map New forecast layout! Learn more

10-Day Weather Forecast

Advertisements
Track Severe Weather on mobile